Terminal Aerodrome Forecast
Issued by NWS

Home | Current Version | Previous Version | Text Only | Print | Product List | Glossary On
Versions: 1 2 3 4 5 6 7 8 9 10 11 12 13 14 15 16 17 18 19 20 21 22 23 24 25 26 27 28 29 30 31 32 33 34 35 36 37 38
000
FTUS45 KGJT 250532
TAFEGE
TAFEGE
TAF AMD
KEGE 250532Z 2506/2606 30006KT P6SM VCSH SCT050 OVC090
     FM251200 VRB03KT P6SM BKN020 OVC040
     FM251500 VRB03KT P6SM SCT030 BKN070
     FM251800 25010G15KT P6SM VCSH SCT030 BKN070
     FM252000 26007KT P6SM VCTS BKN030CB
      AMD LTD TO CLD VIS AND WIND TIL 251300=

USA.gov is the U.S. government's official web portal to all federal, state and local government web resources and services.